sensor_id;sensor_type;location;lat;lon;timestamp;P1;durP1;ratioP1;P2;durP2;ratioP2
7338;SDS011;33747;49.524;8.390;2023-07-09T00:01:49;13.93;;;4.85;;
7338;SDS011;33747;49.524;8.390;2023-07-09T00:04:14;8.23;;;4.72;;
7338;SDS011;33747;49.524;8.390;2023-07-09T00:06:40;15.48;;;5.20;;
7338;SDS011;33747;49.524;8.390;2023-07-09T00:09:06;9.02;;;4.10;;
7338;SDS011;33747;49.524;8.390;2023-07-09T00:11:37;12.82;;;4.90;;
7338;SDS011;33747;49.524;8.390;2023-07-09T00:14:04;8.88;;;4.85;;
7338;SDS011;33747;49.524;8.390;2023-07-09T00:16:30;9.32;;;4.60;;
7338;SDS011;33747;49.524;8.390;2023-07-09T00:18:55;11.32;;;4.47;;
7338;SDS011;33747;49.524;8.390;2023-07-09T00:21:21;13.70;;;5.57;;
7338;SDS011;33747;49.524;8.390;2023-07-09T00:23:47;11.10;;;5.75;;
7338;SDS011;33747;49.524;8.390;2023-07-09T00:26:15;12.48;;;5.28;;
7338;SDS011;33747;49.524;8.390;2023-07-09T00:28:42;12.90;;;5.97;;
7338;SDS011;33747;49.524;8.390;2023-07-09T00:31:10;14.93;;;5.72;;
7338;SDS011;33747;49.524;8.390;2023-07-09T00:33:38;10.65;;;5.25;;
7338;SDS011;33747;49.524;8.390;2023-07-09T00:36:04;9.50;;;5.30;;
7338;SDS011;33747;49.524;8.390;2023-07-09T00:38:35;16.92;;;5.78;;
7338;SDS011;33747;49.524;8.390;2023-07-09T00:41:04;13.45;;;5.85;;
7338;SDS011;33747;49.524;8.390;2023-07-09T00:43:34;10.75;;;5.00;;
7338;SDS011;33747;49.524;8.390;2023-07-09T00:48:48;9.85;;;5.57;;
7338;SDS011;33747;49.524;8.390;2023-07-09T00:51:16;10.00;;;4.90;;
7338;SDS011;33747;49.524;8.390;2023-07-09T00:53:45;11.95;;;5.40;;
7338;SDS011;33747;49.524;8.390;2023-07-09T00:56:12;10.20;;;4.80;;
7338;SDS011;33747;49.524;8.390;2023-07-09T00:58:39;12.38;;;5.10;;
7338;SDS011;33747;49.524;8.390;2023-07-09T01:01:06;9.93;;;5.28;;
7338;SDS011;33747;49.524;8.390;2023-07-09T01:03:40;16.73;;;5.15;;
7338;SDS011;33747;49.524;8.390;2023-07-09T01:06:07;8.75;;;5.68;;
7338;SDS011;33747;49.524;8.390;2023-07-09T01:08:34;10.73;;;5.55;;
7338;SDS011;33747;49.524;8.390;2023-07-09T01:11:01;10.82;;;5.13;;
7338;SDS011;33747;49.524;8.390;2023-07-09T01:13:27;10.73;;;5.63;;
7338;SDS011;33747;49.524;8.390;2023-07-09T01:15:54;13.57;;;5.85;;
7338;SDS011;33747;49.524;8.390;2023-07-09T01:18:20;11.98;;;4.95;;
7338;SDS011;33747;49.524;8.390;2023-07-09T01:20:46;11.52;;;5.50;;
7338;SDS011;33747;49.524;8.390;2023-07-09T01:23:11;7.07;;;5.20;;
7338;SDS011;33747;49.524;8.390;2023-07-09T01:25:38;10.85;;;4.88;;
7338;SDS011;33747;49.524;8.390;2023-07-09T01:28:08;14.68;;;6.25;;
7338;SDS011;33747;49.524;8.390;2023-07-09T01:30:37;10.02;;;5.43;;
7338;SDS011;33747;49.524;8.390;2023-07-09T01:33:03;9.70;;;4.88;;
7338;SDS011;33747;49.524;8.390;2023-07-09T01:35:32;9.27;;;5.47;;
7338;SDS011;33747;49.524;8.390;2023-07-09T01:37:58;11.63;;;5.03;;
7338;SDS011;33747;49.524;8.390;2023-07-09T01:40:24;14.25;;;5.53;;
7338;SDS011;33747;49.524;8.390;2023-07-09T01:42:52;11.00;;;4.60;;
7338;SDS011;33747;49.524;8.390;2023-07-09T01:45:17;13.65;;;5.00;;
7338;SDS011;33747;49.524;8.390;2023-07-09T01:47:45;13.68;;;5.57;;
7338;SDS011;33747;49.524;8.390;2023-07-09T01:50:10;12.32;;;6.15;;
7338;SDS011;33747;49.524;8.390;2023-07-09T01:52:37;11.43;;;4.97;;
7338;SDS011;33747;49.524;8.390;2023-07-09T01:55:07;8.57;;;5.25;;
7338;SDS011;33747;49.524;8.390;2023-07-09T01:57:35;10.95;;;6.00;;
7338;SDS011;33747;49.524;8.390;2023-07-09T02:00:02;15.55;;;4.93;;
7338;SDS011;33747;49.524;8.390;2023-07-09T02:02:36;12.93;;;5.03;;
7338;SDS011;33747;49.524;8.390;2023-07-09T02:05:04;15.02;;;5.05;;
7338;SDS011;33747;49.524;8.390;2023-07-09T02:07:30;7.18;;;4.63;;
7338;SDS011;33747;49.524;8.390;2023-07-09T02:09:55;9.35;;;4.72;;
7338;SDS011;33747;49.524;8.390;2023-07-09T02:12:20;12.35;;;5.30;;
7338;SDS011;33747;49.524;8.390;2023-07-09T02:14:46;17.15;;;5.68;;
7338;SDS011;33747;49.524;8.390;2023-07-09T02:17:13;9.52;;;6.03;;
7338;SDS011;33747;49.524;8.390;2023-07-09T02:19:39;10.00;;;5.53;;
7338;SDS011;33747;49.524;8.390;2023-07-09T02:22:05;11.63;;;5.45;;
7338;SDS011;33747;49.524;8.390;2023-07-09T02:24:31;9.70;;;5.35;;
7338;SDS011;33747;49.524;8.390;2023-07-09T02:26:57;13.75;;;4.90;;
7338;SDS011;33747;49.524;8.390;2023-07-09T02:29:25;11.75;;;5.50;;
7338;SDS011;33747;49.524;8.390;2023-07-09T02:31:51;8.57;;;4.72;;
7338;SDS011;33747;49.524;8.390;2023-07-09T02:34:18;11.20;;;5.15;;
7338;SDS011;33747;49.524;8.390;2023-07-09T02:36:44;13.82;;;5.80;;
7338;SDS011;33747;49.524;8.390;2023-07-09T02:39:10;11.93;;;5.43;;
7338;SDS011;33747;49.524;8.390;2023-07-09T02:41:36;7.80;;;5.28;;
7338;SDS011;33747;49.524;8.390;2023-07-09T02:44:02;12.68;;;5.95;;
7338;SDS011;33747;49.524;8.390;2023-07-09T02:46:28;9.18;;;4.93;;
7338;SDS011;33747;49.524;8.390;2023-07-09T02:48:53;8.02;;;5.68;;
7338;SDS011;33747;49.524;8.390;2023-07-09T02:51:19;9.98;;;5.70;;
7338;SDS011;33747;49.524;8.390;2023-07-09T02:53:44;14.65;;;5.82;;
7338;SDS011;33747;49.524;8.390;2023-07-09T02:56:10;9.82;;;5.35;;
7338;SDS011;33747;49.524;8.390;2023-07-09T02:58:35;8.75;;;5.10;;
7338;SDS011;33747;49.524;8.390;2023-07-09T03:01:01;8.50;;;4.90;;
7338;SDS011;33747;49.524;8.390;2023-07-09T03:03:28;9.52;;;4.72;;
7338;SDS011;33747;49.524;8.390;2023-07-09T03:05:53;13.05;;;5.80;;
7338;SDS011;33747;49.524;8.390;2023-07-09T03:08:19;12.52;;;5.15;;
7338;SDS011;33747;49.524;8.390;2023-07-09T03:10:44;15.95;;;6.30;;
7338;SDS011;33747;49.524;8.390;2023-07-09T03:13:09;10.82;;;4.95;;
7338;SDS011;33747;49.524;8.390;2023-07-09T03:15:35;9.05;;;5.03;;
7338;SDS011;33747;49.524;8.390;2023-07-09T03:18:00;9.48;;;5.13;;
7338;SDS011;33747;49.524;8.390;2023-07-09T03:20:26;12.02;;;5.47;;
7338;SDS011;33747;49.524;8.390;2023-07-09T03:22:51;10.85;;;4.78;;
7338;SDS011;33747;49.524;8.390;2023-07-09T03:25:17;13.93;;;5.03;;
7338;SDS011;33747;49.524;8.390;2023-07-09T03:27:42;13.20;;;5.57;;
7338;SDS011;33747;49.524;8.390;2023-07-09T03:30:08;10.13;;;5.10;;
7338;SDS011;33747;49.524;8.390;2023-07-09T03:32:33;15.10;;;4.72;;
7338;SDS011;33747;49.524;8.390;2023-07-09T03:34:59;14.85;;;5.40;;
7338;SDS011;33747;49.524;8.390;2023-07-09T03:37:24;13.60;;;5.15;;
7338;SDS011;33747;49.524;8.390;2023-07-09T03:39:50;9.70;;;5.50;;
7338;SDS011;33747;49.524;8.390;2023-07-09T03:42:15;10.30;;;4.90;;
7338;SDS011;33747;49.524;8.390;2023-07-09T03:44:41;8.82;;;4.82;;
7338;SDS011;33747;49.524;8.390;2023-07-09T03:47:06;17.90;;;5.63;;
7338;SDS011;33747;49.524;8.390;2023-07-09T03:49:32;16.23;;;5.82;;
7338;SDS011;33747;49.524;8.390;2023-07-09T03:51:57;14.18;;;5.57;;
7338;SDS011;33747;49.524;8.390;2023-07-09T03:54:23;12.07;;;6.10;;
7338;SDS011;33747;49.524;8.390;2023-07-09T03:56:48;14.43;;;5.93;;
7338;SDS011;33747;49.524;8.390;2023-07-09T03:59:14;11.45;;;5.72;;
7338;SDS011;33747;49.524;8.390;2023-07-09T04:01:39;13.80;;;5.60;;
7338;SDS011;33747;49.524;8.390;2023-07-09T04:04:04;23.90;;;5.78;;
7338;SDS011;33747;49.524;8.390;2023-07-09T04:06:30;16.85;;;5.53;;
7338;SDS011;33747;49.524;8.390;2023-07-09T04:08:55;19.60;;;5.57;;
7338;SDS011;33747;49.524;8.390;2023-07-09T04:11:21;11.80;;;5.53;;
7338;SDS011;33747;49.524;8.390;2023-07-09T04:13:46;16.77;;;6.32;;
7338;SDS011;33747;49.524;8.390;2023-07-09T04:16:11;12.55;;;5.75;;
7338;SDS011;33747;49.524;8.390;2023-07-09T04:18:37;11.75;;;5.80;;
7338;SDS011;33747;49.524;8.390;2023-07-09T04:21:02;14.43;;;5.57;;
7338;SDS011;33747;49.524;8.390;2023-07-09T04:23:28;15.23;;;5.80;;
7338;SDS011;33747;49.524;8.390;2023-07-09T04:25:54;11.82;;;5.82;;
7338;SDS011;33747;49.524;8.390;2023-07-09T04:28:19;14.68;;;5.95;;
7338;SDS011;33747;49.524;8.390;2023-07-09T04:30:51;19.20;;;8.10;;
7338;SDS011;33747;49.524;8.390;2023-07-09T04:33:17;26.17;;;8.32;;
7338;SDS011;33747;49.524;8.390;2023-07-09T04:35:46;14.88;;;7.93;;
7338;SDS011;33747;49.524;8.390;2023-07-09T04:38:12;18.27;;;7.72;;
7338;SDS011;33747;49.524;8.390;2023-07-09T04:40:38;16.80;;;6.78;;
7338;SDS011;33747;49.524;8.390;2023-07-09T04:43:03;19.58;;;6.25;;
7338;SDS011;33747;49.524;8.390;2023-07-09T04:45:29;17.17;;;6.75;;
7338;SDS011;33747;49.524;8.390;2023-07-09T04:47:54;15.10;;;6.38;;
7338;SDS011;33747;49.524;8.390;2023-07-09T04:50:19;10.30;;;5.90;;
7338;SDS011;33747;49.524;8.390;2023-07-09T04:52:45;16.95;;;6.32;;
7338;SDS011;33747;49.524;8.390;2023-07-09T04:55:10;14.90;;;6.35;;
7338;SDS011;33747;49.524;8.390;2023-07-09T04:57:36;18.17;;;6.00;;
7338;SDS011;33747;49.524;8.390;2023-07-09T05:00:02;11.77;;;5.75;;
7338;SDS011;33747;49.524;8.390;2023-07-09T05:02:29;10.27;;;5.05;;
7338;SDS011;33747;49.524;8.390;2023-07-09T05:04:55;16.15;;;5.30;;
7338;SDS011;33747;49.524;8.390;2023-07-09T05:07:21;11.75;;;4.97;;
7338;SDS011;33747;49.524;8.390;2023-07-09T05:09:46;13.35;;;5.13;;
7338;SDS011;33747;49.524;8.390;2023-07-09T05:12:12;22.17;;;4.97;;
7338;SDS011;33747;49.524;8.390;2023-07-09T05:14:38;12.80;;;5.15;;
7338;SDS011;33747;49.524;8.390;2023-07-09T05:17:03;16.65;;;4.90;;
7338;SDS011;33747;49.524;8.390;2023-07-09T05:19:29;10.80;;;4.97;;
7338;SDS011;33747;49.524;8.390;2023-07-09T05:21:54;11.50;;;5.15;;
7338;SDS011;33747;49.524;8.390;2023-07-09T05:24:20;19.75;;;7.75;;
7338;SDS011;33747;49.524;8.390;2023-07-09T05:26:45;21.88;;;7.78;;
7338;SDS011;33747;49.524;8.390;2023-07-09T05:29:10;17.55;;;6.30;;
7338;SDS011;33747;49.524;8.390;2023-07-09T05:31:36;13.32;;;5.30;;
7338;SDS011;33747;49.524;8.390;2023-07-09T05:34:01;20.55;;;6.35;;
7338;SDS011;33747;49.524;8.390;2023-07-09T05:36:27;19.00;;;4.40;;
7338;SDS011;33747;49.524;8.390;2023-07-09T05:38:53;14.23;;;4.68;;
7338;SDS011;33747;49.524;8.390;2023-07-09T05:41:19;12.02;;;4.97;;
7338;SDS011;33747;49.524;8.390;2023-07-09T05:43:45;12.95;;;4.90;;
7338;SDS011;33747;49.524;8.390;2023-07-09T05:46:10;11.57;;;5.22;;
7338;SDS011;33747;49.524;8.390;2023-07-09T05:48:36;13.75;;;4.97;;
7338;SDS011;33747;49.524;8.390;2023-07-09T05:51:02;9.00;;;3.97;;
7338;SDS011;33747;49.524;8.390;2023-07-09T05:53:27;17.98;;;4.80;;
7338;SDS011;33747;49.524;8.390;2023-07-09T05:55:53;8.00;;;4.10;;
7338;SDS011;33747;49.524;8.390;2023-07-09T05:58:19;11.00;;;4.50;;
7338;SDS011;33747;49.524;8.390;2023-07-09T06:00:44;9.18;;;4.25;;
7338;SDS011;33747;49.524;8.390;2023-07-09T06:03:10;12.95;;;4.68;;
7338;SDS011;33747;49.524;8.390;2023-07-09T06:05:35;9.35;;;4.00;;
7338;SDS011;33747;49.524;8.390;2023-07-09T06:08:01;14.25;;;5.65;;
7338;SDS011;33747;49.524;8.390;2023-07-09T06:10:26;9.65;;;5.22;;
7338;SDS011;33747;49.524;8.390;2023-07-09T06:12:52;12.10;;;5.72;;
7338;SDS011;33747;49.524;8.390;2023-07-09T06:15:17;11.63;;;5.10;;
7338;SDS011;33747;49.524;8.390;2023-07-09T06:17:43;8.82;;;4.10;;
7338;SDS011;33747;49.524;8.390;2023-07-09T06:20:08;12.48;;;5.18;;
7338;SDS011;33747;49.524;8.390;2023-07-09T06:22:34;12.32;;;5.35;;
7338;SDS011;33747;49.524;8.390;2023-07-09T06:25:00;16.40;;;4.38;;
7338;SDS011;33747;49.524;8.390;2023-07-09T06:27:26;11.85;;;5.35;;
7338;SDS011;33747;49.524;8.390;2023-07-09T06:29:51;11.70;;;4.63;;
7338;SDS011;33747;49.524;8.390;2023-07-09T06:32:17;16.83;;;5.10;;
7338;SDS011;33747;49.524;8.390;2023-07-09T06:34:42;10.50;;;4.15;;
7338;SDS011;33747;49.524;8.390;2023-07-09T06:37:08;11.82;;;5.13;;
7338;SDS011;33747;49.524;8.390;2023-07-09T06:39:33;12.95;;;4.35;;
7338;SDS011;33747;49.524;8.390;2023-07-09T06:41:58;7.63;;;4.28;;
7338;SDS011;33747;49.524;8.390;2023-07-09T06:44:24;6.68;;;3.90;;
7338;SDS011;33747;49.524;8.390;2023-07-09T06:46:50;8.40;;;4.53;;
7338;SDS011;33747;49.524;8.390;2023-07-09T06:49:15;19.70;;;4.60;;
7338;SDS011;33747;49.524;8.390;2023-07-09T06:51:41;20.38;;;3.95;;
7338;SDS011;33747;49.524;8.390;2023-07-09T06:54:07;6.68;;;3.80;;
7338;SDS011;33747;49.524;8.390;2023-07-09T06:56:33;9.18;;;4.22;;
7338;SDS011;33747;49.524;8.390;2023-07-09T06:58:59;10.27;;;4.88;;
7338;SDS011;33747;49.524;8.390;2023-07-09T07:01:24;7.82;;;4.15;;
7338;SDS011;33747;49.524;8.390;2023-07-09T07:03:50;10.13;;;4.05;;
7338;SDS011;33747;49.524;8.390;2023-07-09T07:06:15;11.55;;;4.45;;
7338;SDS011;33747;49.524;8.390;2023-07-09T07:08:41;9.05;;;4.35;;
7338;SDS011;33747;49.524;8.390;2023-07-09T07:11:06;12.48;;;4.55;;
7338;SDS011;33747;49.524;8.390;2023-07-09T07:13:33;8.75;;;3.83;;
7338;SDS011;33747;49.524;8.390;2023-07-09T07:16:00;6.85;;;4.10;;
7338;SDS011;33747;49.524;8.390;2023-07-09T07:18:33;5.35;;;3.80;;
7338;SDS011;33747;49.524;8.390;2023-07-09T07:20:59;7.15;;;4.05;;
7338;SDS011;33747;49.524;8.390;2023-07-09T07:23:25;9.25;;;4.47;;
7338;SDS011;33747;49.524;8.390;2023-07-09T07:25:50;10.35;;;4.30;;
7338;SDS011;33747;49.524;8.390;2023-07-09T07:28:17;6.97;;;4.03;;
7338;SDS011;33747;49.524;8.390;2023-07-09T07:30:42;10.68;;;4.20;;
7338;SDS011;33747;49.524;8.390;2023-07-09T07:33:08;11.23;;;4.72;;
7338;SDS011;33747;49.524;8.390;2023-07-09T07:35:33;10.95;;;4.40;;
7338;SDS011;33747;49.524;8.390;2023-07-09T07:37:59;8.35;;;4.57;;
7338;SDS011;33747;49.524;8.390;2023-07-09T07:40:24;12.13;;;4.45;;
7338;SDS011;33747;49.524;8.390;2023-07-09T07:42:49;7.07;;;4.03;;
7338;SDS011;33747;49.524;8.390;2023-07-09T07:45:15;12.10;;;4.82;;
7338;SDS011;33747;49.524;8.390;2023-07-09T07:47:41;7.63;;;4.60;;
7338;SDS011;33747;49.524;8.390;2023-07-09T07:50:07;7.28;;;4.65;;
7338;SDS011;33747;49.524;8.390;2023-07-09T07:52:32;10.10;;;4.40;;
7338;SDS011;33747;49.524;8.390;2023-07-09T07:55:01;8.93;;;3.95;;
7338;SDS011;33747;49.524;8.390;2023-07-09T07:57:26;15.70;;;4.60;;
7338;SDS011;33747;49.524;8.390;2023-07-09T07:59:52;14.82;;;4.25;;
7338;SDS011;33747;49.524;8.390;2023-07-09T08:02:17;10.52;;;5.00;;
7338;SDS011;33747;49.524;8.390;2023-07-09T08:04:42;10.02;;;3.95;;
7338;SDS011;33747;49.524;8.390;2023-07-09T08:07:08;17.83;;;4.60;;
7338;SDS011;33747;49.524;8.390;2023-07-09T08:09:34;6.72;;;3.90;;
7338;SDS011;33747;49.524;8.390;2023-07-09T08:12:00;14.80;;;4.50;;
7338;SDS011;33747;49.524;8.390;2023-07-09T08:14:26;16.40;;;4.28;;
7338;SDS011;33747;49.524;8.390;2023-07-09T08:16:51;7.22;;;4.38;;
7338;SDS011;33747;49.524;8.390;2023-07-09T08:19:18;11.65;;;4.47;;
7338;SDS011;33747;49.524;8.390;2023-07-09T08:21:44;11.43;;;4.63;;
7338;SDS011;33747;49.524;8.390;2023-07-09T08:24:09;10.52;;;4.28;;
7338;SDS011;33747;49.524;8.390;2023-07-09T08:26:35;7.93;;;3.83;;
7338;SDS011;33747;49.524;8.390;2023-07-09T08:29:02;12.82;;;4.45;;
7338;SDS011;33747;49.524;8.390;2023-07-09T08:31:28;9.60;;;4.03;;
7338;SDS011;33747;49.524;8.390;2023-07-09T08:33:53;8.43;;;4.15;;
7338;SDS011;33747;49.524;8.390;2023-07-09T08:36:19;7.57;;;4.05;;
7338;SDS011;33747;49.524;8.390;2023-07-09T08:38:44;7.45;;;3.85;;
7338;SDS011;33747;49.524;8.390;2023-07-09T08:41:20;10.13;;;4.13;;
7338;SDS011;33747;49.524;8.390;2023-07-09T08:46:54;7.32;;;4.55;;
7338;SDS011;33747;49.524;8.390;2023-07-09T08:49:38;11.20;;;3.78;;
7338;SDS011;33747;49.524;8.390;2023-07-09T08:52:10;7.85;;;4.05;;
7338;SDS011;33747;49.524;8.390;2023-07-09T08:54:45;9.65;;;4.13;;
7338;SDS011;33747;49.524;8.390;2023-07-09T08:57:16;9.50;;;4.20;;
7338;SDS011;33747;49.524;8.390;2023-07-09T08:59:53;7.72;;;4.28;;
7338;SDS011;33747;49.524;8.390;2023-07-09T09:02:33;7.38;;;4.05;;
7338;SDS011;33747;49.524;8.390;2023-07-09T09:05:02;8.40;;;4.00;;
7338;SDS011;33747;49.524;8.390;2023-07-09T09:07:40;6.70;;;4.32;;
7338;SDS011;33747;49.524;8.390;2023-07-09T09:10:08;5.47;;;3.45;;
7338;SDS011;33747;49.524;8.390;2023-07-09T09:12:38;7.45;;;4.10;;
7338;SDS011;33747;49.524;8.390;2023-07-09T09:15:18;9.00;;;3.70;;
7338;SDS011;33747;49.524;8.390;2023-07-09T09:17:45;11.45;;;4.10;;
7338;SDS011;33747;49.524;8.390;2023-07-09T09:20:23;5.53;;;3.70;;
7338;SDS011;33747;49.524;8.390;2023-07-09T09:22:52;7.10;;;3.50;;
7338;SDS011;33747;49.524;8.390;2023-07-09T09:25:37;4.25;;;3.22;;
7338;SDS011;33747;49.524;8.390;2023-07-09T09:28:05;4.38;;;3.38;;
7338;SDS011;33747;49.524;8.390;2023-07-09T09:30:30;9.63;;;3.97;;
7338;SDS011;33747;49.524;8.390;2023-07-09T09:32:57;6.43;;;3.60;;
7338;SDS011;33747;49.524;8.390;2023-07-09T09:35:31;4.63;;;3.40;;
7338;SDS011;33747;49.524;8.390;2023-07-09T09:37:58;9.50;;;3.80;;
7338;SDS011;33747;49.524;8.390;2023-07-09T09:40:25;7.03;;;3.85;;
7338;SDS011;33747;49.524;8.390;2023-07-09T09:42:53;13.07;;;3.80;;
7338;SDS011;33747;49.524;8.390;2023-07-09T09:45:20;5.57;;;3.70;;
7338;SDS011;33747;49.524;8.390;2023-07-09T09:47:49;6.45;;;3.30;;
7338;SDS011;33747;49.524;8.390;2023-07-09T09:50:19;8.07;;;3.90;;
7338;SDS011;33747;49.524;8.390;2023-07-09T09:52:46;6.93;;;3.70;;
7338;SDS011;33747;49.524;8.390;2023-07-09T09:55:16;5.07;;;3.38;;
7338;SDS011;33747;49.524;8.390;2023-07-09T09:57:47;5.18;;;3.13;;
7338;SDS011;33747;49.524;8.390;2023-07-09T10:02:42;5.15;;;3.40;;
7338;SDS011;33747;49.524;8.390;2023-07-09T10:05:14;5.03;;;3.60;;
7338;SDS011;33747;49.524;8.390;2023-07-09T10:07:42;7.53;;;3.70;;
7338;SDS011;33747;49.524;8.390;2023-07-09T10:10:13;7.63;;;3.38;;
7338;SDS011;33747;49.524;8.390;2023-07-09T10:12:44;4.47;;;3.30;;
7338;SDS011;33747;49.524;8.390;2023-07-09T10:21:05;8.10;;;3.60;;
7338;SDS011;33747;49.524;8.390;2023-07-09T10:24:04;5.50;;;3.35;;
7338;SDS011;33747;49.524;8.390;2023-07-09T10:26:39;7.53;;;3.78;;
7338;SDS011;33747;49.524;8.390;2023-07-09T10:29:23;5.18;;;3.13;;
7338;SDS011;33747;49.524;8.390;2023-07-09T10:37:52;7.30;;;3.33;;
7338;SDS011;33747;49.524;8.390;2023-07-09T10:40:21;8.15;;;3.30;;
7338;SDS011;33747;49.524;8.390;2023-07-09T10:42:53;6.88;;;3.10;;
7338;SDS011;33747;49.524;8.390;2023-07-09T10:45:22;7.57;;;3.13;;
7338;SDS011;33747;49.524;8.390;2023-07-09T10:47:53;9.52;;;3.78;;
7338;SDS011;33747;49.524;8.390;2023-07-09T10:50:31;5.95;;;3.03;;
7338;SDS011;33747;49.524;8.390;2023-07-09T10:52:59;8.05;;;2.70;;
7338;SDS011;33747;49.524;8.390;2023-07-09T10:55:33;5.25;;;2.90;;
7338;SDS011;33747;49.524;8.390;2023-07-09T10:58:07;4.38;;;3.10;;
7338;SDS011;33747;49.524;8.390;2023-07-09T11:00:41;5.18;;;3.00;;
7338;SDS011;33747;49.524;8.390;2023-07-09T11:03:13;4.05;;;2.80;;
7338;SDS011;33747;49.524;8.390;2023-07-09T11:05:41;5.97;;;2.55;;
7338;SDS011;33747;49.524;8.390;2023-07-09T11:08:09;4.95;;;3.00;;
7338;SDS011;33747;49.524;8.390;2023-07-09T11:10:44;4.55;;;2.83;;
7338;SDS011;33747;49.524;8.390;2023-07-09T11:13:15;6.35;;;2.60;;
7338;SDS011;33747;49.524;8.390;2023-07-09T11:15:45;3.05;;;2.33;;
7338;SDS011;33747;49.524;8.390;2023-07-09T11:18:13;5.28;;;2.13;;
7338;SDS011;33747;49.524;8.390;2023-07-09T11:20:44;4.25;;;2.45;;
7338;SDS011;33747;49.524;8.390;2023-07-09T11:23:17;7.63;;;2.65;;
7338;SDS011;33747;49.524;8.390;2023-07-09T11:25:48;6.80;;;3.58;;
7338;SDS011;33747;49.524;8.390;2023-07-09T11:28:35;4.97;;;3.08;;
7338;SDS011;33747;49.524;8.390;2023-07-09T11:31:14;9.57;;;3.15;;
7338;SDS011;33747;49.524;8.390;2023-07-09T11:37:31;4.50;;;3.05;;
7338;SDS011;33747;49.524;8.390;2023-07-09T11:42:01;4.22;;;3.38;;
7338;SDS011;33747;49.524;8.390;2023-07-09T11:44:29;6.18;;;3.53;;
7338;SDS011;33747;49.524;8.390;2023-07-09T11:49:59;5.25;;;3.30;;
7338;SDS011;33747;49.524;8.390;2023-07-09T11:52:28;8.98;;;2.80;;
7338;SDS011;33747;49.524;8.390;2023-07-09T11:54:57;5.78;;;3.10;;
7338;SDS011;33747;49.524;8.390;2023-07-09T11:57:22;6.07;;;3.30;;
7338;SDS011;33747;49.524;8.390;2023-07-09T11:59:48;4.63;;;3.25;;
7338;SDS011;33747;49.524;8.390;2023-07-09T12:02:15;9.13;;;2.97;;
7338;SDS011;33747;49.524;8.390;2023-07-09T12:04:43;4.80;;;3.15;;
7338;SDS011;33747;49.524;8.390;2023-07-09T12:07:09;6.20;;;3.38;;
7338;SDS011;33747;49.524;8.390;2023-07-09T12:09:39;6.03;;;3.25;;
7338;SDS011;33747;49.524;8.390;2023-07-09T12:12:26;11.65;;;3.28;;
7338;SDS011;33747;49.524;8.390;2023-07-09T12:14:52;4.70;;;3.05;;
7338;SDS011;33747;49.524;8.390;2023-07-09T12:17:18;3.08;;;2.78;;
7338;SDS011;33747;49.524;8.390;2023-07-09T12:19:43;6.75;;;2.90;;
7338;SDS011;33747;49.524;8.390;2023-07-09T12:22:10;6.18;;;2.90;;
7338;SDS011;33747;49.524;8.390;2023-07-09T12:24:42;8.30;;;3.40;;
7338;SDS011;33747;49.524;8.390;2023-07-09T12:27:18;6.32;;;4.00;;
7338;SDS011;33747;49.524;8.390;2023-07-09T12:29:46;8.93;;;3.08;;
7338;SDS011;33747;49.524;8.390;2023-07-09T12:32:13;4.80;;;3.03;;
7338;SDS011;33747;49.524;8.390;2023-07-09T12:34:40;7.07;;;2.83;;
7338;SDS011;33747;49.524;8.390;2023-07-09T12:37:07;5.68;;;2.97;;
7338;SDS011;33747;49.524;8.390;2023-07-09T12:39:37;5.65;;;2.88;;
7338;SDS011;33747;49.524;8.390;2023-07-09T12:42:03;4.80;;;2.80;;
7338;SDS011;33747;49.524;8.390;2023-07-09T12:44:30;5.57;;;3.40;;
7338;SDS011;33747;49.524;8.390;2023-07-09T12:46:56;7.00;;;2.97;;
7338;SDS011;33747;49.524;8.390;2023-07-09T12:49:26;5.32;;;3.00;;
7338;SDS011;33747;49.524;8.390;2023-07-09T12:51:55;3.55;;;2.58;;
7338;SDS011;33747;49.524;8.390;2023-07-09T12:54:21;3.10;;;2.80;;
7338;SDS011;33747;49.524;8.390;2023-07-09T12:56:46;6.90;;;3.25;;
7338;SDS011;33747;49.524;8.390;2023-07-09T12:59:16;4.00;;;2.70;;
7338;SDS011;33747;49.524;8.390;2023-07-09T13:04:28;3.90;;;3.08;;
7338;SDS011;33747;49.524;8.390;2023-07-09T13:06:55;3.63;;;2.97;;
7338;SDS011;33747;49.524;8.390;2023-07-09T13:09:24;9.95;;;3.10;;
7338;SDS011;33747;49.524;8.390;2023-07-09T13:11:50;4.10;;;2.78;;
7338;SDS011;33747;49.524;8.390;2023-07-09T13:14:18;4.45;;;3.13;;
7338;SDS011;33747;49.524;8.390;2023-07-09T13:16:45;4.70;;;3.08;;
7338;SDS011;33747;49.524;8.390;2023-07-09T13:19:10;6.22;;;2.70;;
7338;SDS011;33747;49.524;8.390;2023-07-09T13:21:35;5.05;;;2.72;;
7338;SDS011;33747;49.524;8.390;2023-07-09T13:24:05;5.53;;;2.95;;
7338;SDS011;33747;49.524;8.390;2023-07-09T13:26:55;4.80;;;2.88;;
7338;SDS011;33747;49.524;8.390;2023-07-09T13:29:23;5.93;;;3.13;;
7338;SDS011;33747;49.524;8.390;2023-07-09T13:31:48;3.80;;;2.70;;
7338;SDS011;33747;49.524;8.390;2023-07-09T13:34:22;3.47;;;2.63;;
7338;SDS011;33747;49.524;8.390;2023-07-09T13:36:49;5.35;;;3.20;;
7338;SDS011;33747;49.524;8.390;2023-07-09T13:39:16;4.35;;;2.88;;
7338;SDS011;33747;49.524;8.390;2023-07-09T13:41:42;6.18;;;2.65;;
7338;SDS011;33747;49.524;8.390;2023-07-09T13:44:13;4.35;;;2.83;;
7338;SDS011;33747;49.524;8.390;2023-07-09T13:46:40;3.45;;;2.70;;
7338;SDS011;33747;49.524;8.390;2023-07-09T13:49:10;5.43;;;2.80;;
7338;SDS011;33747;49.524;8.390;2023-07-09T13:51:36;5.10;;;2.70;;
7338;SDS011;33747;49.524;8.390;2023-07-09T13:54:06;7.22;;;2.47;;
7338;SDS011;33747;49.524;8.390;2023-07-09T13:56:39;3.63;;;2.42;;
7338;SDS011;33747;49.524;8.390;2023-07-09T13:59:10;4.70;;;2.97;;
7338;SDS011;33747;49.524;8.390;2023-07-09T14:01:38;6.75;;;2.80;;
7338;SDS011;33747;49.524;8.390;2023-07-09T14:04:03;6.90;;;2.78;;
7338;SDS011;33747;49.524;8.390;2023-07-09T14:06:29;3.50;;;2.70;;
7338;SDS011;33747;49.524;8.390;2023-07-09T14:08:54;7.50;;;3.17;;
7338;SDS011;33747;49.524;8.390;2023-07-09T14:11:20;4.70;;;3.03;;
7338;SDS011;33747;49.524;8.390;2023-07-09T14:13:46;10.73;;;2.72;;
7338;SDS011;33747;49.524;8.390;2023-07-09T14:16:12;4.28;;;2.50;;
7338;SDS011;33747;49.524;8.390;2023-07-09T14:18:38;6.10;;;2.80;;
7338;SDS011;33747;49.524;8.390;2023-07-09T14:21:11;3.00;;;2.35;;
7338;SDS011;33747;49.524;8.390;2023-07-09T14:23:38;3.67;;;2.63;;
7338;SDS011;33747;49.524;8.390;2023-07-09T14:26:04;4.22;;;3.20;;
7338;SDS011;33747;49.524;8.390;2023-07-09T14:28:29;3.83;;;2.65;;
7338;SDS011;33747;49.524;8.390;2023-07-09T14:30:54;5.15;;;2.67;;
7338;SDS011;33747;49.524;8.390;2023-07-09T14:33:20;7.40;;;3.10;;
7338;SDS011;33747;49.524;8.390;2023-07-09T14:35:46;4.07;;;2.75;;
7338;SDS011;33747;49.524;8.390;2023-07-09T14:38:17;6.22;;;2.60;;
7338;SDS011;33747;49.524;8.390;2023-07-09T14:40:45;3.97;;;2.90;;
7338;SDS011;33747;49.524;8.390;2023-07-09T14:43:11;3.47;;;2.65;;
7338;SDS011;33747;49.524;8.390;2023-07-09T14:45:36;3.42;;;2.53;;
7338;SDS011;33747;49.524;8.390;2023-07-09T14:48:04;4.65;;;2.80;;
7338;SDS011;33747;49.524;8.390;2023-07-09T14:50:34;9.30;;;3.00;;
7338;SDS011;33747;49.524;8.390;2023-07-09T14:52:59;5.13;;;3.00;;
7338;SDS011;33747;49.524;8.390;2023-07-09T14:55:25;7.97;;;2.80;;
7338;SDS011;33747;49.524;8.390;2023-07-09T14:57:50;6.35;;;2.97;;
7338;SDS011;33747;49.524;8.390;2023-07-09T15:00:17;4.25;;;2.90;;
7338;SDS011;33747;49.524;8.390;2023-07-09T15:02:45;7.57;;;3.10;;
7338;SDS011;33747;49.524;8.390;2023-07-09T15:05:13;4.93;;;2.75;;
7338;SDS011;33747;49.524;8.390;2023-07-09T15:07:43;8.55;;;3.97;;
7338;SDS011;33747;49.524;8.390;2023-07-09T15:10:25;4.40;;;3.30;;
7338;SDS011;33747;49.524;8.390;2023-07-09T15:12:52;5.90;;;3.20;;
7338;SDS011;33747;49.524;8.390;2023-07-09T15:15:24;4.90;;;2.90;;
7338;SDS011;33747;49.524;8.390;2023-07-09T15:17:52;5.28;;;2.88;;
7338;SDS011;33747;49.524;8.390;2023-07-09T15:20:21;3.88;;;2.80;;
7338;SDS011;33747;49.524;8.390;2023-07-09T15:22:49;7.78;;;2.83;;
7338;SDS011;33747;49.524;8.390;2023-07-09T15:25:22;5.75;;;2.90;;
7338;SDS011;33747;49.524;8.390;2023-07-09T15:27:49;4.93;;;2.72;;
7338;SDS011;33747;49.524;8.390;2023-07-09T15:30:16;8.05;;;2.78;;